Terminal Aerodrome Forecast
Issued by NWS Springfield, MO

Home | Current Version | Previous Version | Text Only | Print | Product List | Glossary On
Versions: 1 2 3 4 5 6 7 8 9 10 11 12 13 14 15 16 17
000
FTUS43 KSGF 241121
TAFSGF
TAF
KSGF 241121Z 2412/2512 31006KT P6SM OVC040
     FM241400 32010KT P6SM OVC030
     FM241800 31013KT P6SM VCSH OVC035
     FM242100 31013KT P6SM BKN045
     FM250000 32011KT P6SM SCT070
     FM250500 VRB03KT P6SM FEW040 FEW140=

USA.gov is the U.S. government's official web portal to all federal, state and local government web resources and services.